Time;durP1;ratioP1;P1;durP2;ratioP2;P2;SDS_P1;SDS_P2;PMS_P1;PMS_P2;Temp;Humidity;BMP_temperature;BMP_pressure;BME280_temperature;BME280_humidity;BME280_pressure;Samples;Min_cycle;Max_cycle;Signal;HPM_P1;HPM_P2
2022/03/03 00:01:40;;;;;;;;;;;0.60;66.80;;;-1.43;62.72;96239.03;4969580;28;20361;-69
2022/03/03 00:04:06;;;;;;;;;;;0.60;66.90;;;-1.43;62.84;96238.22;4979566;28;19926;-68
2022/03/03 00:06:32;;;;;;;;;;;0.60;66.90;;;-1.43;62.53;96238.22;4997046;28;19929;-69
2022/03/03 00:08:58;;;;;;;;;;;0.60;66.80;;;-1.43;62.66;96233.88;4993668;28;19925;-68
2022/03/03 00:11:23;;;;;;;;;;;0.60;66.90;;;-1.44;62.20;96244.31;4978845;28;19921;-68
2022/03/03 00:13:49;;;;;;;;;;;0.50;66.80;;;-1.46;62.15;96251.34;4970679;28;19921;-68
2022/03/03 00:16:15;;;;;;;;;;;0.40;66.80;;;-1.49;62.53;96254.97;4985654;28;19984;-68
2022/03/03 00:18:41;;;;;;;;;;;0.40;66.90;;;-1.53;61.45;96252.72;4989303;28;19928;-68
2022/03/03 00:21:06;;;;;;;;;;;0.30;66.60;;;-1.57;62.39;96249.56;4990094;28;20255;-69
2022/03/03 00:23:32;;;;;;;;;;;0.30;66.70;;;-1.61;61.84;96253.25;4987714;28;20313;-69
2022/03/03 00:25:58;;;;;;;;;;;0.30;66.90;;;-1.67;61.53;96251.13;4976834;28;19949;-69
2022/03/03 00:28:24;;;;;;;;;;;0.20;66.60;;;-1.70;61.67;96246.19;4978965;28;19921;-68
2022/03/03 00:30:49;;;;;;;;;;;0.10;66.70;;;-1.75;61.97;96249.13;4989601;28;19985;-68
2022/03/03 00:33:15;;;;;;;;;;;0.10;66.60;;;-1.80;62.10;96253.78;4978739;28;19926;-69
2022/03/03 00:35:41;;;;;;;;;;;0.10;66.60;;;-1.86;61.82;96252.44;4975063;28;19922;-69
2022/03/03 00:38:06;;;;;;;;;;;0.10;66.50;;;-1.89;62.03;96251.84;4988493;28;20346;-69
2022/03/03 00:40:32;;;;;;;;;;;0.00;66.70;;;-1.92;61.48;96247.72;4977062;28;19921;-69
2022/03/03 00:42:58;;;;;;;;;;;0.00;66.70;;;-1.97;61.98;96249.81;4988260;28;20297;-68
2022/03/03 00:45:24;;;;;;;;;;;0.00;67.10;;;-1.99;62.09;96251.69;4973001;28;19926;-69
2022/03/03 00:47:49;;;;;;;;;;;0.00;67.00;;;-2.04;62.32;96248.59;4990430;28;19922;-69
2022/03/03 00:50:15;;;;;;;;;;;0.00;67.10;;;-2.07;62.09;96251.38;4996853;28;19922;-68
2022/03/03 00:52:41;;;;;;;;;;;0.00;67.20;;;-2.10;62.92;96249.03;4976906;28;19928;-69
2022/03/03 00:55:07;;;;;;;;;;;-3276.70;67.70;;;-2.14;63.07;96246.78;4986957;28;20266;-69
2022/03/03 00:57:33;;;;;;;;;;;-3276.70;67.90;;;-2.18;63.05;96247.00;4979059;28;19983;-69
2022/03/03 00:59:59;;;;;;;;;;;-3276.70;67.90;;;-2.19;63.22;96249.69;4979137;28;19922;-69
2022/03/03 01:02:25;;;;;;;;;;;-3276.70;67.90;;;-2.20;63.13;96248.03;4985202;28;19929;-69
2022/03/03 01:04:50;;;;;;;;;;;-3276.70;68.00;;;-2.23;63.12;96248.25;4988966;28;19924;-68
2022/03/03 01:07:16;;;;;;;;;;;-3276.70;68.00;;;-2.25;63.61;96243.22;4991481;28;19933;-69
2022/03/03 01:09:42;;;;;;;;;;;-3276.60;68.20;;;-2.29;64.11;96241.75;4951702;28;19944;-69
2022/03/03 01:12:08;;;;;;;;;;;-3276.60;68.60;;;-2.29;64.70;96239.16;4980399;28;19922;-69
2022/03/03 01:14:33;;;;;;;;;;;-3276.60;69.00;;;-2.27;64.32;96236.50;4986014;28;19948;-69
2022/03/03 01:16:59;;;;;;;;;;;-3276.60;69.10;;;-2.28;65.14;96229.69;4975510;28;19922;-68
2022/03/03 01:19:25;;;;;;;;;;;-3276.70;69.20;;;-2.28;65.20;96220.22;4991406;28;19922;-69
2022/03/03 01:21:50;;;;;;;;;;;-3276.60;69.50;;;-2.27;65.69;96213.31;4984827;28;20372;-69
2022/03/03 01:24:16;;;;;;;;;;;-3276.70;69.50;;;-2.26;65.61;96215.78;4962793;28;19930;-69
2022/03/03 01:26:42;;;;;;;;;;;-3276.70;69.60;;;-2.25;65.19;96217.44;4972636;28;20393;-69
2022/03/03 01:29:08;;;;;;;;;;;-3276.70;69.80;;;-2.25;65.66;96206.31;4971503;28;19976;-68
2022/03/03 01:31:34;;;;;;;;;;;-3276.70;69.90;;;-2.24;64.78;96207.97;4969121;28;19921;-69
2022/03/03 01:34:00;;;;;;;;;;;-3276.60;69.80;;;-2.23;64.92;96197.53;4994174;28;19941;-69
2022/03/03 01:36:25;;;;;;;;;;;-3276.70;69.50;;;-2.22;64.48;96200.94;4985524;28;19928;-68
2022/03/03 01:38:51;;;;;;;;;;;-3276.70;69.40;;;-2.23;64.65;96207.03;4989829;28;19925;-69
2022/03/03 01:41:17;;;;;;;;;;;-3276.70;69.10;;;-2.25;64.22;96208.88;4987155;28;19921;-69
2022/03/03 01:43:42;;;;;;;;;;;-3276.60;68.70;;;-2.27;64.31;96205.56;4992510;28;19922;-69
2022/03/03 01:46:08;;;;;;;;;;;-3276.60;68.80;;;-2.30;64.16;96206.63;4965977;28;20398;-69
2022/03/03 01:48:34;;;;;;;;;;;-3276.60;69.00;;;-2.32;64.50;96202.50;4980297;28;19945;-68
2022/03/03 01:50:59;;;;;;;;;;;-3276.50;69.20;;;-2.36;64.97;96206.22;4991546;28;19968;-69
2022/03/03 01:53:25;;;;;;;;;;;-3276.50;69.60;;;-2.38;65.40;96192.63;5002826;28;19922;-69
2022/03/03 01:55:51;;;;;;;;;;;-3276.50;69.50;;;-2.39;65.49;96196.97;4976762;28;20350;-68
2022/03/03 01:58:16;;;;;;;;;;;-3276.50;69.80;;;-2.39;65.62;96201.28;4974365;28;19930;-68
2022/03/03 02:00:43;;;;;;;;;;;-3276.50;69.70;;;-2.42;64.88;96201.50;4996979;28;20282;-69
2022/03/03 02:03:10;;;;;;;;;;;-3276.50;69.70;;;-2.45;65.23;96206.88;4973509;28;19925;-68
2022/03/03 02:05:36;;;;;;;;;;;-3276.50;69.90;;;-2.48;65.22;96213.06;4975154;28;19960;-68
2022/03/03 02:08:02;;;;;;;;;;;-3276.50;69.80;;;-2.49;64.83;96204.53;4992047;28;19934;-68
2022/03/03 02:10:27;;;;;;;;;;;-3276.40;69.70;;;-2.52;64.98;96191.84;4997523;28;19969;-68
2022/03/03 02:12:53;;;;;;;;;;;-3276.40;69.60;;;-2.55;64.66;96192.06;4958752;28;19929;-69
2022/03/03 02:15:19;;;;;;;;;;;-3276.40;69.30;;;-2.57;65.04;96191.34;4977774;28;21592;-67
2022/03/03 02:17:45;;;;;;;;;;;-3276.30;69.50;;;-2.57;64.59;96199.06;4971004;28;20008;-67
2022/03/03 02:20:21;;;;;;;;;;;-3276.30;69.60;;;-2.62;64.10;96188.25;4988570;28;19928;-67
2022/03/03 02:22:48;;;;;;;;;;;-3276.20;69.20;;;-2.66;64.79;96188.59;4976417;28;20398;-67
2022/03/03 02:25:14;;;;;;;;;;;-3276.20;69.30;;;-2.70;64.86;96185.41;4980673;28;19922;-67
2022/03/03 02:27:40;;;;;;;;;;;-3276.20;69.40;;;-2.74;64.86;96183.94;4967117;28;20011;-67
2022/03/03 02:30:06;;;;;;;;;;;-3276.10;69.30;;;-2.76;65.04;96178.09;4975960;28;19983;-67
2022/03/03 02:32:32;;;;;;;;;;;-3276.10;69.60;;;-2.76;64.74;96190.94;4995930;28;19921;-67
2022/03/03 02:34:57;;;;;;;;;;;-3276.10;69.40;;;-2.81;64.87;96195.59;5001031;28;19926;-67
2022/03/03 02:37:24;;;;;;;;;;;-3276.10;69.30;;;-2.82;65.01;96192.19;4985073;28;20061;-67
2022/03/03 02:39:49;;;;;;;;;;;-3276.10;69.30;;;-2.86;64.97;96188.19;4987074;28;21780;-68
2022/03/03 02:42:15;;;;;;;;;;;-3276.00;69.40;;;-2.87;64.71;96176.25;5002322;28;19928;-68
2022/03/03 02:44:40;;;;;;;;;;;-3276.00;69.40;;;-2.88;64.83;96181.50;4983686;28;19930;-69
2022/03/03 02:47:06;;;;;;;;;;;-3276.00;69.30;;;-2.88;64.85;96178.94;5001989;28;19934;-68
2022/03/03 02:49:34;;;;;;;;;;;-3276.00;69.40;;;-2.92;65.16;96174.94;4997386;28;19925;-68
2022/03/03 02:52:00;;;;;;;;;;;-3275.90;69.90;;;-2.93;64.48;96181.00;4994315;28;19933;-68
2022/03/03 02:54:26;;;;;;;;;;;-3275.90;69.60;;;-2.99;65.07;96177.09;4993044;28;19930;-68
2022/03/03 02:59:35;;;;;;;;;;;-3275.90;69.80;;;-3.05;65.48;96171.53;4986238;28;20013;-68
2022/03/03 03:02:01;;;;;;;;;;;-3275.80;69.90;;;-3.08;65.31;96173.38;4991549;28;19954;-69
2022/03/03 03:04:27;;;;;;;;;;;-3275.80;69.90;;;-3.10;66.17;96172.69;4997067;28;19921;-68
2022/03/03 03:06:52;;;;;;;;;;;-3275.90;70.00;;;-3.10;65.75;96175.25;4980506;28;20382;-69
2022/03/03 03:09:18;;;;;;;;;;;-3275.90;70.30;;;-3.11;65.47;96173.59;4974370;28;19989;-68
2022/03/03 03:11:44;;;;;;;;;;;-3275.80;70.10;;;-3.12;65.50;96182.25;4998247;28;20377;-68
2022/03/03 03:14:09;;;;;;;;;;;-3275.80;70.30;;;-3.15;66.13;96177.31;4965279;28;19922;-68
2022/03/03 03:16:35;;;;;;;;;;;-3275.80;70.10;;;-3.17;65.54;96186.03;4996723;28;19928;-68
2022/03/03 03:19:01;;;;;;;;;;;-3275.70;70.00;;;-3.19;66.78;96175.84;4962656;28;19929;-68
2022/03/03 03:21:26;;;;;;;;;;;-3275.70;70.40;;;-3.22;66.96;96170.91;5008571;28;19922;-68
2022/03/03 03:23:52;;;;;;;;;;;-3275.70;70.80;;;-3.22;66.43;96170.91;4990040;28;20033;-69
2022/03/03 03:26:18;;;;;;;;;;;-3275.70;70.90;;;-3.23;66.40;96178.72;4991912;28;19925;-68
2022/03/03 03:28:43;;;;;;;;;;;-3275.60;70.80;;;-3.25;65.82;96180.59;4988487;28;19925;-68
2022/03/03 03:31:09;;;;;;;;;;;-3275.70;70.70;;;-3.28;66.07;96166.19;4997409;28;19929;-68
2022/03/03 03:33:35;;;;;;;;;;;-3275.70;70.60;;;-3.29;66.65;96172.25;4997355;28;19921;-68
2022/03/03 03:36:00;;;;;;;;;;;-3275.70;70.90;;;-3.30;66.23;96167.22;4986169;28;19918;-68
2022/03/03 03:38:26;;;;;;;;;;;-3275.60;70.80;;;-3.33;66.04;96147.69;4978646;28;19925;-68
2022/03/03 03:40:52;;;;;;;;;;;-3275.60;70.60;;;-3.33;66.27;96147.69;4987239;28;20000;-68
2022/03/03 03:43:17;;;;;;;;;;;-3275.60;70.70;;;-3.35;66.44;96151.28;4998157;28;19922;-69
2022/03/03 03:45:43;;;;;;;;;;;-3275.60;70.70;;;-3.39;66.50;96148.09;4984665;28;19992;-68
2022/03/03 03:48:09;;;;;;;;;;;-3275.60;70.60;;;-3.40;66.32;96149.00;4994952;28;19922;-70
2022/03/03 03:50:35;;;;;;;;;;;-3275.50;70.70;;;-3.44;66.59;96145.81;4984932;28;19922;-68
2022/03/03 03:53:00;;;;;;;;;;;-3275.50;70.90;;;-3.45;66.71;96143.34;5000382;28;20020;-69
2022/03/03 03:55:26;;;;;;;;;;;-3275.50;71.10;;;-3.44;67.63;96147.56;4975160;28;19926;-69
2022/03/03 03:57:52;;;;;;;;;;;-3275.50;71.80;;;-3.45;66.37;96151.06;4976004;28;19929;-69
2022/03/03 04:00:17;;;;;;;;;;;-3275.50;71.10;;;-3.47;66.00;96150.34;4974340;28;19921;-68
2022/03/03 04:02:44;;;;;;;;;;;-3275.50;71.00;;;-3.47;66.49;96140.06;4977582;28;20400;-68
2022/03/03 04:05:10;;;;;;;;;;;-3275.50;71.00;;;-3.49;66.71;96134.19;4972900;28;19930;-68
2022/03/03 04:07:35;;;;;;;;;;;-3275.50;71.00;;;-3.51;66.54;96130.91;4978288;28;19945;-68
2022/03/03 04:10:01;;;;;;;;;;;-3275.50;71.10;;;-3.55;66.95;96135.44;4966414;28;19949;-69
2022/03/03 04:12:27;;;;;;;;;;;-3275.40;71.30;;;-3.55;66.95;96139.75;4979330;28;19930;-68
2022/03/03 04:14:52;;;;;;;;;;;-3275.40;71.20;;;-3.56;66.92;96140.69;4975994;28;19922;-68
2022/03/03 04:17:18;;;;;;;;;;;-3275.50;71.20;;;-3.55;66.32;96143.16;4965644;28;19932;-68
2022/03/03 04:19:44;;;;;;;;;;;-3275.40;71.20;;;-3.56;66.78;96140.69;4991900;28;19992;-68
2022/03/03 04:22:09;;;;;;;;;;;-3275.40;71.30;;;-3.57;66.80;96139.03;4979791;28;19930;-68
2022/03/03 04:24:35;;;;;;;;;;;-3275.40;71.40;;;-3.58;66.68;96135.63;4965010;28;19922;-68
2022/03/03 04:27:01;;;;;;;;;;;-3275.40;71.30;;;-3.58;66.44;96137.38;4951580;28;20142;-67
2022/03/03 04:29:26;;;;;;;;;;;-3275.30;71.20;;;-3.64;66.40;96136.03;4976725;28;21272;-68
2022/03/03 04:31:53;;;;;;;;;;;-3275.30;71.40;;;-3.63;66.27;96136.84;4965458;28;19922;-70
2022/03/03 04:34:20;;;;;;;;;;;-3275.30;71.10;;;-3.63;66.66;96144.56;4984219;28;19922;-70
2022/03/03 04:36:46;;;;;;;;;;;-3275.30;71.30;;;-3.68;66.54;96136.31;4957915;28;21234;-70
2022/03/03 04:39:12;;;;;;;;;;;-3275.30;71.40;;;-3.70;66.37;96139.81;4963399;28;20049;-68
2022/03/03 04:41:39;;;;;;;;;;;-3275.30;71.30;;;-3.74;66.66;96127.28;4966232;28;19926;-71
2022/03/03 04:44:05;;;;;;;;;;;-3275.20;71.30;;;-3.74;66.70;96128.09;4981137;28;20001;-70
2022/03/03 04:46:30;;;;;;;;;;;-3275.20;71.50;;;-3.77;66.65;96128.31;4962185;28;20002;-70
2022/03/03 04:48:59;;;;;;;;;;;-3275.20;71.40;;;-3.80;67.08;96117.41;4994251;28;20029;-70
2022/03/03 04:51:26;;;;;;;;;;;-3275.20;71.20;;;-3.81;67.08;96116.59;4970552;28;20339;-67
2022/03/03 04:53:51;;;;;;;;;;;-3275.20;71.30;;;-3.81;66.53;96111.44;4982564;28;19960;-68
2022/03/03 04:56:17;;;;;;;;;;;-3275.10;71.20;;;-3.81;66.66;96110.63;4953451;28;19922;-67
2022/03/03 04:58:44;;;;;;;;;;;-3275.10;71.30;;;-3.85;66.63;96102.28;4970769;28;19972;-67
2022/03/03 05:01:11;;;;;;;;;;;-3275.10;71.20;;;-3.86;66.56;96105.78;4973180;28;20008;-67
2022/03/03 05:03:37;;;;;;;;;;;-3275.10;71.30;;;-3.87;66.75;96098.97;4971391;28;20517;-67
2022/03/03 05:06:03;;;;;;;;;;;-3275.10;71.20;;;-3.90;67.10;96106.91;4969425;28;19981;-67
2022/03/03 05:08:29;;;;;;;;;;;-3275.10;71.40;;;-3.91;66.27;96094.97;4969511;28;20345;-68
2022/03/03 05:10:54;;;;;;;;;;;-3275.10;71.10;;;-3.96;67.30;96091.91;4972201;28;19921;-67
2022/03/03 05:13:20;;;;;;;;;;;-3275.00;71.10;;;-3.95;67.06;96092.72;4956957;28;19918;-67
2022/03/03 05:15:46;;;;;;;;;;;-3275.00;71.20;;;-3.98;67.08;96086.03;4941189;28;19976;-67
2022/03/03 05:18:12;;;;;;;;;;;-3275.00;71.60;;;-3.97;67.10;96089.44;4980049;28;19933;-67
2022/03/03 05:20:38;;;;;;;;;;;-3275.00;71.60;;;-3.98;66.59;96082.66;4970961;28;19976;-67
2022/03/03 05:23:04;;;;;;;;;;;-3275.00;71.20;;;-3.99;66.75;96092.09;4990024;28;19929;-67
2022/03/03 05:25:30;;;;;;;;;;;-3275.00;71.60;;;-3.99;66.74;96092.09;4954750;28;20004;-67
2022/03/03 05:27:58;;;;;;;;;;;-3275.00;71.40;;;-4.01;66.70;96099.09;4977310;28;19939;-67
2022/03/03 05:30:23;;;;;;;;;;;-3274.90;71.20;;;-4.02;66.71;96092.31;4998385;28;19931;-66
2022/03/03 05:32:49;;;;;;;;;;;-3274.90;71.10;;;-4.05;66.85;96093.31;4992068;28;19926;-69
2022/03/03 05:35:15;;;;;;;;;;;-3274.90;71.20;;;-4.09;66.95;96088.47;4982566;28;19922;-68
2022/03/03 05:37:40;;;;;;;;;;;-3274.90;71.50;;;-4.10;67.13;96090.22;4982286;28;19981;-68
2022/03/03 05:40:06;;;;;;;;;;;-3274.80;71.30;;;-4.12;67.12;96091.25;4954669;28;19918;-69
2022/03/03 05:42:32;;;;;;;;;;;-3274.80;71.80;;;-4.13;68.08;96089.59;4966226;28;19929;-66
2022/03/03 05:44:58;;;;;;;;;;;-3274.80;72.10;;;-4.15;67.44;96079.41;4959443;28;19922;-68
2022/03/03 05:47:23;;;;;;;;;;;-3274.90;72.20;;;-4.16;67.27;96089.78;4952478;28;19929;-66
2022/03/03 05:49:51;;;;;;;;;;;-3274.80;72.00;;;-4.16;67.58;96089.78;4953018;28;20053;-69
2022/03/03 05:52:17;;;;;;;;;;;-3274.90;72.20;;;-4.18;67.66;96089.06;4954390;28;19922;-70
2022/03/03 05:54:43;;;;;;;;;;;-3274.80;72.30;;;-4.19;68.11;96090.00;4952720;28;19922;-69
2022/03/03 05:57:26;;;;;;;;;;;-3274.80;72.30;;;-4.19;68.35;96095.13;4969604;28;20252;-70
2022/03/03 05:59:53;;;;;;;;;;;-3274.80;72.50;;;-4.18;70.24;96079.63;4981156;28;20009;-70
2022/03/03 06:02:19;;;;;;;;;;;-3275.00;74.80;;;-4.11;69.64;96087.75;4954151;28;19922;-70
2022/03/03 06:04:46;;;;;;;;;;;-3275.00;74.20;;;-4.10;68.57;96090.22;4983375;28;20416;-68
2022/03/03 06:07:12;;;;;;;;;;;-3275.00;73.30;;;-4.10;68.69;96086.81;4971886;28;19934;-75
2022/03/03 06:09:37;;;;;;;;;;;-3275.00;73.40;;;-4.08;68.33;96084.97;4963078;28;20310;-66
2022/03/03 06:12:37;;;;;;;;;;;-3274.90;73.10;;;-4.08;68.60;96078.09;4987738;28;19922;-65
2022/03/03 06:15:04;;;;;;;;;;;-3275.00;73.00;;;-4.08;68.66;96077.25;4972720;28;19922;-66
2022/03/03 06:17:29;;;;;;;;;;;-3275.00;73.30;;;-4.09;68.39;96073.88;4982739;28;19983;-64
2022/03/03 06:19:55;;;;;;;;;;;-3275.00;73.00;;;-4.07;68.90;96076.38;4986014;28;20356;-64
2022/03/03 06:22:21;;;;;;;;;;;-3275.00;72.70;;;-4.06;68.73;96071.13;4985577;28;19926;-64
2022/03/03 06:24:47;;;;;;;;;;;-3275.10;72.50;;;-4.04;68.53;96079.56;4986830;28;20308;-66
2022/03/03 06:27:13;;;;;;;;;;;-3275.10;72.40;;;-4.02;69.17;96071.75;4967570;28;19981;-63
2022/03/03 06:29:39;;;;;;;;;;;-3275.10;72.40;;;-3.98;69.30;96077.50;4967981;28;19926;-64
2022/03/03 06:32:05;;;;;;;;;;;-3275.20;72.80;;;-3.95;69.07;96067.84;4985306;28;19922;-66
2022/03/03 06:34:31;;;;;;;;;;;-3275.30;72.50;;;-3.90;69.01;96070.09;4970945;28;19930;-68
2022/03/03 06:36:56;;;;;;;;;;;-3275.30;72.70;;;-3.86;69.13;96061.25;4990220;28;19918;-68
2022/03/03 06:39:22;;;;;;;;;;;-3275.30;73.10;;;-3.86;69.18;96064.66;4976441;28;19933;-70
2022/03/03 06:41:48;;;;;;;;;;;-3275.30;73.40;;;-3.81;69.42;96059.25;4955770;28;19922;-69
2022/03/03 06:44:14;;;;;;;;;;;-3275.40;73.30;;;-3.78;69.61;96052.13;4986911;28;19922;-68
2022/03/03 06:46:39;;;;;;;;;;;-3275.50;73.20;;;-3.72;69.51;96053.47;4990459;28;19922;-70
2022/03/03 06:49:05;;;;;;;;;;;-3275.60;73.20;;;-3.66;69.36;96041.94;4983777;28;20392;-68
2022/03/03 06:51:40;;;;;;;;;;;-3275.60;73.20;;;-3.59;70.00;96043.19;4989996;28;20396;-67
2022/03/03 06:54:06;;;;;;;;;;;-3275.80;73.10;;;-3.53;70.09;96042.78;4984596;28;20000;-63
2022/03/03 06:56:32;;;;;;;;;;;-3275.90;73.30;;;-3.40;70.28;96038.41;4968182;28;19937;-65
2022/03/03 06:58:59;;;;;;;;;;;-3276.10;73.00;;;-3.27;69.78;96043.56;4974202;28;20236;-66
2022/03/03 07:01:24;;;;;;;;;;;-3276.40;72.20;;;-3.13;69.58;96039.13;4981399;28;19918;-64
2022/03/03 07:03:50;;;;;;;;;;;-3276.60;71.80;;;-2.99;69.44;96030.41;4959492;28;20111;-70
2022/03/03 07:06:16;;;;;;;;;;;0.00;71.30;;;-2.87;69.15;96033.88;4979123;28;19926;-66
2022/03/03 07:08:42;;;;;;;;;;;0.00;71.00;;;-2.71;69.20;96037.03;4990267;28;19922;-64
2022/03/03 07:11:07;;;;;;;;;;;0.20;70.30;;;-2.56;68.44;96030.75;4974319;28;20337;-66
2022/03/03 07:13:33;;;;;;;;;;;0.40;69.60;;;-2.39;68.57;96015.84;4988010;28;20452;-67
2022/03/03 07:16:05;;;;;;;;;;;0.60;69.20;;;-2.20;67.99;96026.44;4971624;28;19922;-64
2022/03/03 07:18:35;;;;;;;;;;;0.80;68.40;;;-2.04;67.66;96023.53;4973757;28;19922;-67
2022/03/03 07:21:03;;;;;;;;;;;1.10;67.60;;;-1.84;66.53;96022.88;4974280;28;19968;-67
2022/03/03 07:23:46;;;;;;;;;;;1.40;66.20;;;-1.65;65.21;96025.72;4969977;28;20001;-64
2022/03/03 07:26:11;;;;;;;;;;;1.60;65.10;;;-1.46;65.97;96012.25;4977930;28;19938;-66
2022/03/03 07:28:41;;;;;;;;;;;1.80;64.40;;;-1.26;65.37;96014.13;4962377;28;20024;-65
2022/03/03 07:31:07;;;;;;;;;;;2.10;63.60;;;-1.06;65.28;96009.19;4982900;28;19928;-64
2022/03/03 07:33:51;;;;;;;;;;;2.40;62.50;;;-0.91;64.68;96020.88;4970266;28;19922;-65
2022/03/03 07:36:18;;;;;;;;;;;2.50;62.00;;;-0.70;64.72;96034.69;4990206;28;19944;-64
2022/03/03 07:39:06;;;;;;;;;;;2.80;61.50;;;-0.47;64.36;96042.38;4970552;28;20266;-66
2022/03/03 07:41:32;;;;;;;;;;;3.10;61.10;;;-0.26;63.52;96040.63;4980051;28;20301;-64
2022/03/03 07:43:58;;;;;;;;;;;3.30;59.30;;;-0.04;63.37;96056.06;4990076;28;19953;-65
2022/03/03 07:46:24;;;;;;;;;;;3.90;58.10;;;0.24;63.19;96053.81;4990342;28;19925;-64
2022/03/03 07:48:53;;;;;;;;;;;4.60;56.70;;;0.54;62.91;96048.66;4980168;28;20017;-65
2022/03/03 07:51:19;;;;;;;;;;;5.10;55.20;;;0.84;61.50;96057.38;4978773;28;19922;-65
2022/03/03 07:53:45;;;;;;;;;;;5.60;52.90;;;1.12;61.70;96058.41;4970380;28;20374;-63
2022/03/03 07:56:13;;;;;;;;;;;6.10;52.00;;;1.45;61.31;96052.94;4946455;28;19928;-63
2022/03/03 07:58:44;;;;;;;;;;;6.60;51.20;;;1.78;60.20;96043.13;4989712;28;19976;-64
2022/03/03 08:01:10;;;;;;;;;;;6.90;49.80;;;2.05;60.05;96035.50;4970683;28;19948;-64
2022/03/03 08:03:35;;;;;;;;;;;7.10;48.60;;;2.30;59.09;96034.09;4988813;28;19937;-63
2022/03/03 08:06:01;;;;;;;;;;;7.40;47.60;;;2.57;58.34;96041.13;4973298;28;19932;-68
2022/03/03 08:08:28;;;;;;;;;;;7.60;47.10;;;2.81;57.36;96032.84;4969203;28;19934;-66
2022/03/03 08:10:57;;;;;;;;;;;8.00;46.30;;;3.05;56.94;96024.53;4986545;28;20017;-63
2022/03/03 08:13:22;;;;;;;;;;;8.50;44.90;;;3.32;56.99;96015.91;4970794;28;19935;-65
2022/03/03 08:15:48;;;;;;;;;;;8.90;44.00;;;3.60;55.51;96014.91;4988497;28;19918;-65
2022/03/03 08:18:14;;;;;;;;;;;9.30;42.30;;;3.86;54.63;96014.19;4955919;28;20407;-65
2022/03/03 08:20:40;;;;;;;;;;;9.60;41.20;;;4.12;53.77;96009.84;4990182;28;19925;-64
2022/03/03 08:23:06;;;;;;;;;;;9.90;40.70;;;4.36;54.21;96010.97;4989055;28;19937;-64
2022/03/03 08:25:33;;;;;;;;;;;10.10;41.10;;;4.58;54.71;96015.69;4964533;28;20009;-65
2022/03/03 08:27:58;;;;;;;;;;;10.30;41.60;;;4.82;54.86;96013.22;4975959;28;19922;-65
2022/03/03 08:30:24;;;;;;;;;;;10.40;41.20;;;5.08;54.14;96017.56;4989175;28;20401;-66
2022/03/03 08:32:56;;;;;;;;;;;10.60;41.20;;;5.29;53.72;96012.75;4988904;28;19925;-65
2022/03/03 08:35:30;;;;;;;;;;;11.00;40.70;;;5.54;53.67;96011.03;4988667;28;19925;-66
2022/03/03 08:38:05;;;;;;;;;;;11.20;39.80;;;5.83;53.02;96002.75;4971769;28;19922;-63
2022/03/03 08:40:31;;;;;;;;;;;11.80;39.00;;;6.12;52.38;96003.13;4978423;28;19922;-66
2022/03/03 08:42:59;;;;;;;;;;;12.10;38.20;;;6.43;51.86;96000.66;4972780;28;20464;-64
2022/03/03 08:45:29;;;;;;;;;;;12.60;37.80;;;6.75;52.04;95994.53;4984685;28;19918;-64
2022/03/03 08:48:14;;;;;;;;;;;13.00;36.90;;;7.05;50.09;95986.94;4983955;28;19952;-67
2022/03/03 08:50:40;;;;;;;;;;;13.30;35.60;;;7.42;49.66;95977.59;4979401;28;20343;-64
2022/03/03 08:53:06;;;;;;;;;;;13.60;35.10;;;7.80;48.78;95973.25;4954374;28;19925;-63
2022/03/03 08:55:33;;;;;;;;;;;14.10;33.80;;;8.15;47.33;95972.66;4970332;28;19922;-62
2022/03/03 08:57:58;;;;;;;;;;;14.30;32.50;;;8.54;46.71;95967.25;4956210;28;20025;-62
2022/03/03 09:00:25;;;;;;;;;;;14.90;32.40;;;8.87;44.89;95970.34;4988403;28;19929;-66
2022/03/03 09:02:50;;;;;;;;;;;15.00;30.90;;;9.21;43.80;95964.50;4965185;28;19933;-69
2022/03/03 09:05:16;;;;;;;;;;;15.30;29.00;;;9.56;43.93;95967.34;4978305;28;19929;-65
2022/03/03 09:07:42;;;;;;;;;;;15.60;29.20;;;9.89;42.55;95958.97;4969335;28;20333;-67
2022/03/03 09:10:08;;;;;;;;;;;15.90;28.20;;;10.19;41.66;95955.22;4986750;28;19929;-66
2022/03/03 09:12:34;;;;;;;;;;;16.20;27.80;;;10.49;41.51;95957.69;4988200;28;19917;-67
2022/03/03 09:14:59;;;;;;;;;;;16.50;27.00;;;10.76;40.42;95954.22;4967885;28;20373;-63
2022/03/03 09:17:25;;;;;;;;;;;16.60;26.80;;;11.08;40.14;95957.22;4975807;28;19918;-63
2022/03/03 09:19:51;;;;;;;;;;;16.90;26.70;;;11.43;39.60;95964.06;4984702;28;20388;-63
2022/03/03 09:22:16;;;;;;;;;;;17.20;26.00;;;11.65;38.33;95959.47;4987138;28;19930;-64
2022/03/03 09:24:42;;;;;;;;;;;17.50;24.90;;;11.91;39.45;95956.91;4968535;28;19925;-64
2022/03/03 09:27:08;;;;;;;;;;;17.70;25.20;;;12.15;39.28;95957.34;4979201;28;19929;-64
2022/03/03 09:29:34;;;;;;;;;;;17.80;25.70;;;12.39;39.17;95956.75;4991031;28;19922;-65
2022/03/03 09:32:00;;;;;;;;;;;18.00;25.70;;;12.52;39.08;95958.59;4978393;28;19929;-67
2022/03/03 09:34:28;;;;;;;;;;;18.10;26.50;;;12.71;39.39;95959.59;4987140;28;20310;-65
2022/03/03 09:36:54;;;;;;;;;;;18.50;26.30;;;12.95;40.02;95960.75;4975293;28;19922;-66
2022/03/03 09:39:20;;;;;;;;;;;18.90;26.00;;;13.17;39.16;95959.47;4986474;28;19926;-66
2022/03/03 09:41:46;;;;;;;;;;;19.50;25.60;;;13.35;38.18;95959.66;4981385;28;19926;-63
2022/03/03 09:44:13;;;;;;;;;;;19.90;24.60;;;13.58;37.36;95960.94;4983216;28;20294;-65
2022/03/03 09:46:39;;;;;;;;;;;20.40;23.30;;;13.83;37.36;95953.91;4979543;28;19923;-67
2022/03/03 09:49:06;;;;;;;;;;;20.80;22.50;;;14.10;36.28;95952.72;4970603;28;19957;-63
2022/03/03 09:51:32;;;;;;;;;;;21.60;21.60;;;14.34;35.77;95951.09;4965409;28;20301;-65
2022/03/03 09:53:58;;;;;;;;;;;22.30;20.60;;;14.51;36.48;95945.31;4986032;28;19927;-64
2022/03/03 09:56:23;;;;;;;;;;;22.80;20.00;;;14.76;35.43;95945.28;4987445;28;20406;-65
2022/03/03 09:58:49;;;;;;;;;;;23.60;19.10;;;15.12;35.51;95947.94;4969265;28;19980;-65
2022/03/03 10:01:17;;;;;;;;;;;24.50;17.90;;;15.53;34.43;95943.78;4973396;28;19918;-66
2022/03/03 10:03:47;;;;;;;;;;;25.50;17.20;;;16.09;33.32;95937.34;4988587;28;20386;-65
2022/03/03 10:06:13;;;;;;;;;;;26.00;16.30;;;16.66;33.51;95935.00;4986786;28;19953;-62
2022/03/03 10:08:38;;;;;;;;;;;26.80;15.70;;;17.18;33.08;95940.41;4988519;28;19960;-67
2022/03/03 10:11:04;;;;;;;;;;;27.60;15.00;;;17.73;31.99;95938.91;4990453;28;20297;-66
2022/03/03 10:13:49;;;;;;;;;;;28.50;14.60;;;18.55;32.74;95929.63;4975946;28;19922;-64
2022/03/03 10:16:20;;;;;;;;;;;29.60;14.10;;;19.11;32.45;95935.81;4982754;28;19922;-66
2022/03/03 10:19:01;;;;;;;;;;;30.20;13.40;;;19.69;32.29;95923.72;4988392;28;19926;-66
2022/03/03 10:21:35;;;;;;;;;;;31.20;13.20;;;20.15;29.73;95925.81;4985445;28;20394;-69
2022/03/03 10:24:14;;;;;;;;;;;32.00;12.50;;;20.74;31.11;95925.78;4974068;28;19925;-66
2022/03/03 10:26:40;;;;;;;;;;;32.60;12.20;;;21.31;30.29;95919.72;4974485;28;19926;-65
2022/03/03 10:29:16;;;;;;;;;;;33.50;12.10;;;21.76;30.35;95910.25;4975157;28;19928;-65
2022/03/03 10:31:46;;;;;;;;;;;34.00;11.60;;;22.08;30.69;95911.94;4984692;28;20397;-68
2022/03/03 10:34:20;;;;;;;;;;;34.40;11.20;;;22.43;30.29;95906.63;4963888;28;19921;-65
2022/03/03 10:37:06;;;;;;;;;;;34.60;11.00;;;22.74;30.50;95904.72;4993581;28;20393;-67
2022/03/03 10:39:48;;;;;;;;;;;35.10;10.90;;;23.06;29.74;95911.63;5000259;28;19953;-65
2022/03/03 10:42:16;;;;;;;;;;;35.50;10.70;;;23.46;29.88;95910.72;4978910;28;19927;-65
2022/03/03 10:44:42;;;;;;;;;;;36.10;10.30;;;23.81;30.16;95897.16;4972332;28;19922;-64
2022/03/03 10:47:18;;;;;;;;;;;36.30;10.20;;;24.05;27.51;95885.72;4953161;28;20719;-66
2022/03/03 10:49:45;;;;;;;;;;;36.40;10.20;;;24.37;28.71;95891.41;4963278;28;19957;-67
2022/03/03 10:52:21;;;;;;;;;;;36.50;10.40;;;24.70;27.88;95892.47;4972659;28;20016;-68
2022/03/03 10:55:02;;;;;;;;;;;36.80;10.00;;;24.93;28.32;95880.16;4978372;28;19977;-65
2022/03/03 10:57:31;;;;;;;;;;;37.30;9.30;;;25.07;26.28;95874.91;4975225;28;19956;-68
2022/03/03 10:59:58;;;;;;;;;;;37.40;9.00;;;25.28;26.28;95884.34;4993847;28;19917;-65
2022/03/03 11:02:28;;;;;;;;;;;37.60;9.00;;;25.55;27.56;95881.06;4989456;28;20330;-69
2022/03/03 11:04:55;;;;;;;;;;;38.00;9.00;;;25.72;26.77;95877.09;4968513;28;19933;-69
2022/03/03 11:07:21;;;;;;;;;;;37.80;9.00;;;25.97;26.35;95871.34;4975800;28;19926;-70
2022/03/03 11:09:48;;;;;;;;;;;38.30;9.00;;;26.29;26.81;95867.13;4974467;28;19921;-69